Time;durP1;ratioP1;P1;durP2;ratioP2;P2;SDS_P1;SDS_P2;PMS_P1;PMS_P2;Temp;Humidity;BMP_temperature;BMP_pressure;BME280_temperature;BME280_humidity;BME280_pressure;Samples;Min_cycle;Max_cycle;Signal;HPM_P1;HPM_P2
2022/03/30 00:00:15;;;;;;;22.23;10.02;;;;;;;9.05;48.78;93435.09;5063083;28;20021;-73
2022/03/30 00:02:40;;;;;;;25.48;9.10;;;;;;;9.03;48.79;93439.94;5064115;28;20090;-73
2022/03/30 00:05:06;;;;;;;25.67;9.50;;;;;;;9.07;48.86;93438.22;5064211;28;20013;-73
2022/03/30 00:07:32;;;;;;;25.25;9.20;;;;;;;9.07;48.71;93432.13;5063927;28;20208;-73
2022/03/30 00:09:59;;;;;;;19.75;8.88;;;;;;;9.08;48.87;93437.13;5064176;28;20024;-73
2022/03/30 00:12:24;;;;;;;25.23;9.57;;;;;;;9.04;48.77;93436.97;5064047;28;20020;-73
2022/03/30 00:14:51;;;;;;;23.35;9.63;;;;;;;9.01;48.88;93429.59;5063789;28;20032;-73
2022/03/30 00:17:17;;;;;;;28.77;8.93;;;;;;;9.01;49.11;93428.84;5064011;28;20021;-73
2022/03/30 00:19:43;;;;;;;23.52;8.63;;;;;;;8.98;49.06;93418.84;5063915;28;20021;-73
2022/03/30 00:22:09;;;;;;;20.63;9.15;;;;;;;8.96;48.98;93424.47;5063713;28;20349;-73
2022/03/30 00:24:36;;;;;;;26.27;9.68;;;;;;;9.02;49.04;93425.88;5063831;28;20095;-73
2022/03/30 00:27:02;;;;;;;23.15;8.98;;;;;;;8.95;49.05;93436.19;5063731;28;20024;-73
2022/03/30 00:29:28;;;;;;;26.73;9.23;;;;;;;8.91;49.25;93429.91;5063384;28;20024;-73
2022/03/30 00:31:54;;;;;;;26.92;9.50;;;;;;;8.92;49.02;93428.84;5063701;28;20028;-73
2022/03/30 00:34:19;;;;;;;26.67;10.48;;;;;;;8.92;49.20;93420.88;5063335;28;20133;-73
2022/03/30 00:36:45;;;;;;;23.33;9.60;;;;;;;8.89;49.29;93424.13;5063598;28;20043;-73
2022/03/30 00:39:10;;;;;;;20.63;10.27;;;;;;;8.91;49.62;93419.28;5063596;28;20028;-75
2022/03/30 00:41:36;;;;;;;23.83;9.77;;;;;;;8.89;49.39;93428.69;5063444;28;20024;-75
2022/03/30 00:44:13;;;;;;;21.85;9.23;;;;;;;8.78;49.43;93420.25;5063370;28;20045;-74
2022/03/30 00:46:39;;;;;;;24.80;10.57;;;;;;;8.76;49.72;93417.88;5063351;28;20144;-73
2022/03/30 00:49:04;;;;;;;26.73;10.55;;;;;;;8.76;49.87;93427.75;5063215;28;20040;-74
2022/03/30 00:51:31;;;;;;;26.33;9.43;;;;;;;8.73;49.97;93438.97;5063212;28;20028;-74
2022/03/30 00:53:56;;;;;;;18.70;9.10;;;;;;;8.67;49.89;93432.25;5063251;28;20315;-73
2022/03/30 00:56:23;;;;;;;23.83;9.73;;;;;;;8.63;50.22;93427.56;5061576;28;20087;-74
2022/03/30 00:58:49;;;;;;;18.30;9.25;;;;;;;8.62;50.11;93433.97;5063251;28;20025;-73
2022/03/30 01:01:14;;;;;;;29.63;10.10;;;;;;;8.55;50.49;93433.66;5063309;28;20017;-72
2022/03/30 01:03:40;;;;;;;23.77;9.80;;;;;;;8.46;50.79;93422.22;5062967;28;20295;-74
2022/03/30 01:06:05;;;;;;;25.65;10.48;;;;;;;8.46;50.86;93424.09;5062896;28;20078;-74
2022/03/30 01:08:31;;;;;;;25.17;11.63;;;;;;;8.46;51.29;93416.91;5061971;28;20013;-74
2022/03/30 01:10:57;;;;;;;27.45;10.68;;;;;;;8.47;51.22;93412.38;5062966;28;20020;-74
2022/03/30 01:13:23;;;;;;;25.83;10.07;;;;;;;8.40;51.25;93415.47;5063022;28;20021;-74
2022/03/30 01:15:49;;;;;;;26.67;11.30;;;;;;;8.41;51.48;93414.41;5062718;28;20204;-73
2022/03/30 01:18:15;;;;;;;25.48;9.40;;;;;;;8.36;51.70;93401.25;5062939;28;20025;-73
2022/03/30 01:20:40;;;;;;;27.55;10.40;;;;;;;8.35;51.88;93408.44;5063025;28;20056;-73
2022/03/30 01:23:06;;;;;;;28.90;10.98;;;;;;;8.32;51.53;93405.59;5062865;28;20264;-72
2022/03/30 01:25:32;;;;;;;25.15;9.35;;;;;;;8.34;51.80;93404.19;5062629;28;20223;-72
2022/03/30 01:27:59;;;;;;;18.92;10.90;;;;;;;8.36;51.79;93404.66;5062480;28;20021;-73
2022/03/30 01:33:08;;;;;;;22.60;9.93;;;;;;;8.40;51.84;93402.19;5062503;28;20051;-73
2022/03/30 01:35:34;;;;;;;22.70;10.38;;;;;;;8.41;51.58;93411.75;5062751;28;20254;-73
2022/03/30 01:38:01;;;;;;;23.90;10.50;;;;;;;8.40;51.66;93405.63;5062512;28;20371;-73
2022/03/30 01:40:26;;;;;;;25.55;10.15;;;;;;;8.43;51.53;93412.22;5062582;28;20096;-73
2022/03/30 01:42:52;;;;;;;20.85;10.50;;;;;;;8.37;51.45;93418.75;5062511;28;20222;-73
2022/03/30 01:45:18;;;;;;;25.58;11.23;;;;;;;8.33;51.83;93415.16;5062485;28;20032;-73
2022/03/30 01:48:09;;;;;;;22.90;9.48;;;;;;;8.33;51.74;93426.53;5062498;28;20024;-72
2022/03/30 01:50:36;;;;;;;22.25;10.43;;;;;;;8.32;51.76;93435.59;5061228;28;20064;-72
2022/03/30 01:53:05;;;;;;;19.30;9.88;;;;;;;8.31;51.75;93431.38;5062370;28;20074;-72
2022/03/30 01:55:30;;;;;;;19.33;9.10;;;;;;;8.30;51.65;93421.84;5062265;28;20388;-73
2022/03/30 01:57:56;;;;;;;29.90;10.23;;;;;;;8.31;52.03;93428.72;5062065;28;20048;-72
2022/03/30 02:00:24;;;;;;;26.65;11.43;;;;;;;8.30;52.10;93426.38;5062302;28;20263;-72
2022/03/30 02:02:49;;;;;;;28.38;10.27;;;;;;;8.24;52.11;93431.84;5062453;28;20032;-72
2022/03/30 02:05:16;;;;;;;24.10;9.48;;;;;;;8.19;51.99;93421.34;5062213;28;20024;-72
2022/03/30 02:07:41;;;;;;;24.25;9.43;;;;;;;8.16;52.16;93429.94;5062346;28;20044;-72
2022/03/30 02:10:08;;;;;;;28.35;10.77;;;;;;;8.16;52.36;93429.13;5062320;28;20189;-72
2022/03/30 02:12:34;;;;;;;29.35;11.40;;;;;;;8.12;52.56;93426.34;5062065;28;20029;-73
2022/03/30 02:14:59;;;;;;;22.33;10.85;;;;;;;8.07;52.63;93429.13;5061866;28;20057;-73
2022/03/30 02:17:27;;;;;;;28.52;10.25;;;;;;;8.09;52.91;93439.44;5062170;28;20299;-73
2022/03/30 02:19:56;;;;;;;20.63;10.80;;;;;;;8.04;52.55;93429.75;5063155;28;20039;-72
2022/03/30 02:22:22;;;;;;;23.73;10.30;;;;;;;7.99;52.67;93428.00;5065871;28;20280;-72
2022/03/30 02:24:51;;;;;;;27.95;12.23;;;;;;;7.97;52.80;93430.16;5066128;28;20020;-73
2022/03/30 02:27:19;;;;;;;28.05;11.60;;;;;;;7.92;53.04;93437.50;5066161;28;20033;-72
2022/03/30 02:29:46;;;;;;;35.63;13.77;;;;;;;7.90;53.06;93434.38;5066156;28;20028;-72
2022/03/30 02:32:12;;;;;;;47.10;13.75;;;;;;;7.81;53.25;93440.41;5065847;28;20025;-73
2022/03/30 02:34:38;;;;;;;28.38;13.73;;;;;;;7.76;53.61;93445.09;5065866;28;20029;-73
2022/03/30 02:37:04;;;;;;;23.02;11.50;;;;;;;7.75;53.82;93448.81;5065861;28;20223;-73
2022/03/30 02:39:29;;;;;;;29.38;10.65;;;;;;;7.74;53.84;93447.25;5065801;28;20017;-72
2022/03/30 02:41:55;;;;;;;22.80;11.05;;;;;;;7.64;54.14;93438.47;5065564;28;20024;-72
2022/03/30 02:44:22;;;;;;;23.15;11.43;;;;;;;7.61;54.25;93444.38;5065921;28;20021;-72
2022/03/30 02:46:47;;;;;;;30.00;10.48;;;;;;;7.60;54.63;93453.41;5065969;28;20368;-72
2022/03/30 02:49:13;;;;;;;26.73;10.32;;;;;;;7.59;54.50;93445.75;5065666;28;20029;-72
2022/03/30 02:51:39;;;;;;;30.33;11.05;;;;;;;7.58;54.24;93444.19;5065452;28;20031;-72
2022/03/30 02:54:05;;;;;;;25.67;11.32;;;;;;;7.56;54.76;93441.06;5065456;28;20041;-72
2022/03/30 02:56:31;;;;;;;32.50;11.70;;;;;;;7.61;54.85;93440.94;5065240;28;20044;-74
2022/03/30 02:58:56;;;;;;;35.30;13.55;;;;;;;7.59;54.61;93440.44;5065495;28;20323;-74
2022/03/30 03:01:22;;;;;;;25.88;12.50;;;;;;;7.58;54.80;93433.59;5065256;28;20318;-76
2022/03/30 03:03:47;;;;;;;31.45;10.35;;;;;;;7.56;54.80;93438.41;5065526;28;20013;-75
2022/03/30 03:06:13;;;;;;;23.80;10.55;;;;;;;7.61;54.81;93431.13;5065388;28;20311;-74
2022/03/30 03:08:38;;;;;;;32.55;11.57;;;;;;;7.61;54.78;93428.47;5065225;28;20048;-75
2022/03/30 03:11:03;;;;;;;24.83;10.90;;;;;;;7.61;54.76;93427.66;5065117;28;20040;-74
2022/03/30 03:13:30;;;;;;;27.27;12.30;;;;;;;7.58;54.95;93422.97;5065156;28;20062;-74
2022/03/30 03:15:56;;;;;;;29.33;11.88;;;;;;;7.58;54.90;93429.06;5064974;28;20100;-74
2022/03/30 03:18:21;;;;;;;31.10;12.57;;;;;;;7.61;54.75;93433.78;5065030;28;20090;-74
2022/03/30 03:20:48;;;;;;;29.33;11.90;;;;;;;7.58;55.03;93425.63;5065010;28;20020;-74
2022/03/30 03:23:14;;;;;;;28.63;12.63;;;;;;;7.62;54.81;93423.94;5064600;28;20319;-74
2022/03/30 03:25:41;;;;;;;29.00;13.52;;;;;;;7.61;54.80;93419.72;5064903;28;20067;-74
2022/03/30 03:28:11;;;;;;;31.48;14.50;;;;;;;7.60;54.81;93423.47;5064995;28;20025;-74
2022/03/30 03:30:38;;;;;;;31.45;13.65;;;;;;;7.55;54.45;93427.03;5063949;28;20043;-74
2022/03/30 03:33:04;;;;;;;38.03;14.02;;;;;;;7.46;54.90;93425.41;5064750;28;20032;-75
2022/03/30 03:35:30;;;;;;;36.80;14.27;;;;;;;7.46;55.03;93420.13;5064767;28;20039;-74
2022/03/30 03:37:55;;;;;;;31.13;13.43;;;;;;;7.47;55.22;93416.38;5064473;28;20303;-74
2022/03/30 03:40:21;;;;;;;31.20;12.38;;;;;;;7.47;55.16;93426.97;5064797;28;20048;-74
2022/03/30 03:42:48;;;;;;;30.38;12.50;;;;;;;7.45;55.21;93424.63;5064648;28;20256;-75
2022/03/30 03:45:13;;;;;;;27.05;13.27;;;;;;;7.46;55.11;93430.72;5064540;28;20330;-74
2022/03/30 03:47:39;;;;;;;31.77;13.57;;;;;;;7.40;55.46;93420.22;5064504;28;20020;-74
2022/03/30 03:50:05;;;;;;;23.63;11.05;;;;;;;7.37;55.68;93420.84;5064426;28;20029;-74
2022/03/30 03:52:31;;;;;;;28.20;12.02;;;;;;;7.42;55.55;93425.22;5064337;28;20193;-73
2022/03/30 03:54:56;;;;;;;26.48;11.60;;;;;;;7.43;55.36;93427.59;5064303;28;20055;-73
2022/03/30 03:57:22;;;;;;;29.90;11.43;;;;;;;7.29;55.78;93426.88;5063840;28;20045;-73
2022/03/30 03:59:47;;;;;;;26.83;10.95;;;;;;;7.27;56.01;93413.16;5064442;28;20079;-73
2022/03/30 04:02:13;;;;;;;28.73;12.23;;;;;;;7.27;56.27;93415.78;5064179;28;20096;-73
2022/03/30 04:04:38;;;;;;;31.42;11.73;;;;;;;7.33;56.07;93417.25;5062817;28;20315;-73
2022/03/30 04:07:04;;;;;;;37.88;13.70;;;;;;;7.37;55.77;93412.13;5063842;28;20032;-73
2022/03/30 04:09:30;;;;;;;33.63;13.50;;;;;;;7.30;56.00;93412.53;5064114;28;20029;-73
2022/03/30 04:11:55;;;;;;;22.40;11.20;;;;;;;7.23;56.23;93406.88;5064113;28;20361;-73
2022/03/30 04:14:21;;;;;;;39.58;12.35;;;;;;;7.28;56.30;93409.41;5063841;28;20251;-73
2022/03/30 04:16:47;;;;;;;26.38;11.68;;;;;;;7.33;56.24;93409.28;5063909;28;20013;-73
2022/03/30 04:19:13;;;;;;;30.50;11.60;;;;;;;7.39;56.00;93418.69;5063364;28;20122;-73
2022/03/30 04:21:39;;;;;;;32.42;12.23;;;;;;;7.44;55.96;93417.75;5063596;28;20021;-73
2022/03/30 04:24:05;;;;;;;35.17;12.57;;;;;;;7.44;55.80;93429.13;5063868;28;20168;-73
2022/03/30 04:26:31;;;;;;;25.58;10.65;;;;;;;7.47;56.01;93419.00;5063623;28;20017;-74
2022/03/30 04:28:56;;;;;;;28.38;11.05;;;;;;;7.55;56.01;93423.56;5063675;28;20264;-74
2022/03/30 04:31:22;;;;;;;27.38;10.98;;;;;;;7.59;55.73;93424.53;5063661;28;20028;-74
2022/03/30 04:33:47;;;;;;;33.03;11.10;;;;;;;7.63;55.82;93428.94;5063766;28;20087;-74
2022/03/30 04:36:13;;;;;;;25.65;11.20;;;;;;;7.69;55.83;93431.47;5063227;28;20070;-73
2022/03/30 04:38:38;;;;;;;27.77;12.45;;;;;;;7.69;55.76;93429.56;5063630;28;20377;-73
2022/03/30 04:41:04;;;;;;;27.50;10.20;;;;;;;7.74;55.69;93432.13;5063396;28;20268;-74
2022/03/30 04:43:30;;;;;;;36.40;10.40;;;;;;;7.76;55.56;93435.25;5063004;28;20201;-71
2022/03/30 04:45:55;;;;;;;25.85;11.02;;;;;;;7.76;55.31;93432.59;5063160;28;20017;-73
2022/03/30 04:48:22;;;;;;;27.92;11.07;;;;;;;7.71;55.52;93422.09;5063104;28;20366;-73
2022/03/30 04:50:51;;;;;;;29.27;11.32;;;;;;;7.77;55.56;93417.44;5063130;28;20056;-74
2022/03/30 04:53:16;;;;;;;36.63;12.27;;;;;;;7.82;55.66;93418.09;5063323;28;20122;-72
2022/03/30 04:55:42;;;;;;;32.13;13.02;;;;;;;7.89;55.61;93414.22;5063003;28;20037;-72
2022/03/30 04:58:08;;;;;;;29.65;10.85;;;;;;;7.96;55.57;93411.94;5062923;28;20048;-72
2022/03/30 05:00:33;;;;;;;33.70;11.80;;;;;;;8.00;55.43;93426.16;5063059;28;20036;-72
2022/03/30 05:02:59;;;;;;;35.85;10.85;;;;;;;8.04;55.28;93419.13;5062974;28;20033;-72
2022/03/30 05:05:24;;;;;;;28.77;11.02;;;;;;;8.08;55.20;93419.28;5062699;28;20092;-72
2022/03/30 05:07:50;;;;;;;32.35;12.10;;;;;;;8.19;55.23;93436.50;5063217;28;20032;-72
2022/03/30 05:10:16;;;;;;;37.03;11.98;;;;;;;8.24;54.72;93433.69;5063232;28;20315;-75
2022/03/30 05:12:43;;;;;;;32.55;12.70;;;;;;;8.30;54.66;93429.81;5062980;28;20084;-75
2022/03/30 05:15:10;;;;;;;32.20;12.25;;;;;;;8.35;54.68;93434.22;5062675;28;20092;-75
2022/03/30 05:17:38;;;;;;;25.85;11.90;;;;;;;8.44;54.67;93443.00;5062891;28;20021;-75
2022/03/30 05:20:06;;;;;;;33.83;11.70;;;;;;;8.50;54.14;93441.75;5062773;28;20033;-73
2022/03/30 05:22:33;;;;;;;29.13;12.27;;;;;;;8.57;53.73;93443.97;5062673;28;20017;-76
2022/03/30 05:24:59;;;;;;;36.80;12.75;;;;;;;8.64;53.76;93431.00;5062640;28;20108;-75
2022/03/30 05:27:25;;;;;;;27.88;12.23;;;;;;;8.69;53.66;93435.38;5062707;28;20246;-75
2022/03/30 05:29:50;;;;;;;26.27;12.50;;;;;;;8.78;53.43;93434.31;5062737;28;20092;-76
2022/03/30 05:32:16;;;;;;;43.70;13.23;;;;;;;8.83;53.35;93430.69;5062958;28;20023;-80
2022/03/30 05:34:42;;;;;;;32.63;11.18;;;;;;;8.91;53.09;93435.22;5062816;28;20299;-79
2022/03/30 05:37:08;;;;;;;26.42;12.35;;;;;;;9.00;53.17;93433.38;5063026;28;20017;-80
2022/03/30 05:39:35;;;;;;;38.92;12.45;;;;;;;9.09;53.00;93440.56;5062719;28;20057;-81
2022/03/30 05:42:01;;;;;;;23.98;12.05;;;;;;;9.15;52.70;93436.66;5062514;28;20319;-82
2022/03/30 05:44:26;;;;;;;33.72;12.60;;;;;;;9.22;52.46;93434.31;5062391;28;20044;-84
2022/03/30 05:46:52;;;;;;;33.10;12.18;;;;;;;9.27;52.45;93428.03;5062933;28;20035;-84
2022/03/30 05:49:18;;;;;;;31.40;12.90;;;;;;;9.38;51.96;93434.59;5062730;28;20025;-80
2022/03/30 05:51:44;;;;;;;32.58;11.20;;;;;;;9.42;52.25;93433.66;5062411;28;20320;-74
2022/03/30 05:54:10;;;;;;;28.10;10.93;;;;;;;9.51;52.14;93430.22;5063085;28;20032;-75
2022/03/30 05:59:19;;;;;;;36.90;12.82;;;;;;;9.68;51.63;93424.81;5066743;28;20048;-75
2022/03/30 06:01:45;;;;;;;31.83;13.18;;;;;;;9.77;51.32;93428.25;5066258;28;20044;-72
2022/03/30 06:04:10;;;;;;;37.58;12.27;;;;;;;9.86;50.65;93430.88;5066516;28;20221;-74
2022/03/30 06:06:36;;;;;;;28.25;13.52;;;;;;;9.89;50.77;93435.59;5066399;28;20319;-74
2022/03/30 06:09:05;;;;;;;44.03;13.40;;;;;;;9.95;50.84;93433.50;5065177;28;20390;-72
2022/03/30 06:11:31;;;;;;;38.40;12.95;;;;;;;10.01;50.91;93437.56;5066388;28;20017;-73
2022/03/30 06:13:58;;;;;;;36.00;13.20;;;;;;;10.11;50.83;93439.09;5065271;28;20082;-73
2022/03/30 06:16:24;;;;;;;57.70;13.32;;;;;;;10.17;50.88;93435.16;5066356;28;20025;-73
2022/03/30 06:18:50;;;;;;;37.92;13.88;;;;;;;10.22;50.13;93441.09;5066145;28;20020;-72
2022/03/30 06:21:15;;;;;;;36.50;12.85;;;;;;;10.33;49.84;93438.84;5065867;28;20024;-74
2022/03/30 06:23:41;;;;;;;31.63;11.85;;;;;;;10.44;49.71;93431.28;5066072;28;20381;-75
2022/03/30 06:26:07;;;;;;;44.63;12.25;;;;;;;10.55;49.15;93434.38;5065752;28;20196;-76
2022/03/30 06:28:32;;;;;;;37.85;13.32;;;;;;;10.63;49.07;93431.63;5065999;28;20248;-76
2022/03/30 06:30:58;;;;;;;51.67;13.63;;;;;;;10.77;48.69;93438.63;5064814;28;20027;-76
2022/03/30 06:33:23;;;;;;;36.35;11.75;;;;;;;10.88;48.33;93436.34;5064461;28;20024;-76
2022/03/30 06:35:49;;;;;;;36.17;11.60;;;;;;;10.97;48.06;93442.38;5065093;28;20025;-73
2022/03/30 06:38:35;;;;;;;37.53;11.88;;;;;;;11.09;47.95;93444.34;5065525;28;20028;-73
2022/03/30 06:41:00;;;;;;;41.35;11.43;;;;;;;11.17;47.58;93443.50;5064610;28;20196;-74
2022/03/30 06:43:25;;;;;;;29.70;12.20;;;;;;;11.24;47.50;93444.53;5065304;28;20029;-74
2022/03/30 06:45:51;;;;;;;32.80;12.43;;;;;;;11.22;46.89;93445.97;5065628;28;20092;-73
2022/03/30 06:48:16;;;;;;;37.55;11.18;;;;;;;11.26;47.07;93452.22;5065379;28;20274;-72
2022/03/30 06:50:42;;;;;;;36.42;13.93;;;;;;;11.36;47.16;93457.16;5065327;28;20066;-72
2022/03/30 06:53:09;;;;;;;25.63;11.43;;;;;;;11.32;46.87;93450.91;5065384;28;20036;-73
2022/03/30 06:55:35;;;;;;;34.40;11.23;;;;;;;11.45;46.90;93454.41;5065238;28;20021;-72
2022/03/30 06:58:01;;;;;;;25.55;11.48;;;;;;;11.53;46.64;93455.44;5064805;28;20044;-73
2022/03/30 07:00:26;;;;;;;29.50;11.48;;;;;;;11.61;46.59;93460.69;5064032;28;20115;-73
2022/03/30 07:02:52;;;;;;;29.38;12.13;;;;;;;11.68;46.30;93449.47;5065382;28;20135;-71
2022/03/30 07:05:18;;;;;;;28.45;10.80;;;;;;;11.77;46.13;93454.75;5065209;28;20025;-71
2022/03/30 07:10:31;;;;;;;27.83;10.45;;;;;;;12.02;45.88;93461.72;5065244;28;20071;-75
2022/03/30 07:12:56;;;;;;;31.75;12.32;;;;;;;12.14;45.72;93455.59;5064870;28;20047;-74
2022/03/30 07:15:22;;;;;;;28.42;11.07;;;;;;;12.26;45.34;93457.53;5065230;28;20032;-75
2022/03/30 07:17:53;;;;;;;36.17;12.10;;;;;;;12.37;44.63;93452.50;5065268;28;20021;-75
2022/03/30 07:20:20;;;;;;;31.63;10.95;;;;;;;12.47;43.83;93454.75;5065256;28;20059;-76
2022/03/30 07:22:47;;;;;;;34.10;11.50;;;;;;;12.44;43.83;93450.84;5064550;28;20094;-77
2022/03/30 07:25:14;;;;;;;39.42;11.45;;;;;;;12.51;43.98;93444.16;5064768;28;20327;-78
2022/03/30 07:27:45;;;;;;;38.75;11.98;;;;;;;12.57;44.14;93446.28;5064769;28;20024;-76
2022/03/30 07:30:12;;;;;;;39.05;12.00;;;;;;;12.70;43.80;93451.59;5064666;28;20028;-78
2022/03/30 07:32:40;;;;;;;30.73;12.25;;;;;;;12.77;43.61;93443.81;5064743;28;20254;-76
2022/03/30 07:35:07;;;;;;;30.27;11.10;;;;;;;12.89;43.02;93449.16;5064692;28;20104;-77
2022/03/30 07:37:33;;;;;;;33.95;10.80;;;;;;;13.00;42.68;93452.91;5065559;28;20021;-76
2022/03/30 07:39:59;;;;;;;30.33;11.77;;;;;;;13.01;42.64;93448.34;5066104;28;20028;-78
2022/03/30 07:42:25;;;;;;;36.60;12.13;;;;;;;13.03;42.71;93449.56;5065801;28;20354;-79
2022/03/30 07:44:51;;;;;;;41.70;14.00;;;;;;;13.05;42.54;93447.31;5065342;28;20080;-76
2022/03/30 07:47:17;;;;;;;37.25;13.77;;;;;;;13.18;42.28;93455.31;5065230;28;20036;-76
2022/03/30 07:49:43;;;;;;;32.63;12.32;;;;;;;13.21;41.87;93460.00;5065185;28;20067;-77
2022/03/30 07:52:09;;;;;;;27.73;11.90;;;;;;;13.22;41.87;93456.97;5064895;28;20319;-78
2022/03/30 07:54:34;;;;;;;31.65;11.38;;;;;;;13.19;41.57;93440.84;5064975;28;20025;-77
2022/03/30 07:57:00;;;;;;;36.53;11.93;;;;;;;13.13;41.59;93450.22;5064115;28;20300;-77
2022/03/30 07:59:25;;;;;;;37.20;11.90;;;;;;;13.05;41.98;93452.69;5064251;28;20072;-79
2022/03/30 08:01:53;;;;;;;34.30;10.30;;;;;;;13.13;41.92;93442.19;5064431;28;20017;-77
2022/03/30 08:04:19;;;;;;;34.85;11.43;;;;;;;13.28;41.59;93449.50;5064352;28;20040;-77
2022/03/30 08:06:45;;;;;;;37.13;10.02;;;;;;;13.42;40.66;93444.56;5064086;28;20319;-77
2022/03/30 08:09:10;;;;;;;29.48;9.60;;;;;;;13.55;40.49;93439.16;5064295;28;20028;-76
2022/03/30 08:11:36;;;;;;;39.22;11.43;;;;;;;13.61;39.71;93427.09;5064218;28;20104;-75
2022/03/30 08:14:01;;;;;;;56.13;12.65;;;;;;;13.74;40.11;93433.94;5064119;28;20196;-76
2022/03/30 08:16:27;;;;;;;33.80;11.90;;;;;;;13.84;40.44;93433.44;5063498;28;20089;-76
2022/03/30 08:18:52;;;;;;;33.22;11.23;;;;;;;14.03;40.19;93430.09;5063896;28;20025;-77
2022/03/30 08:24:20;;;;;;;33.28;11.50;;;;;;;14.21;39.58;93432.44;5061980;28;20024;-75
2022/03/30 08:26:46;;;;;;;42.22;12.07;;;;;;;14.36;38.88;93437.00;5063209;28;20044;-76
2022/03/30 08:29:11;;;;;;;29.95;14.05;;;;;;;14.44;38.94;93428.00;5063547;28;20088;-76
2022/03/30 08:31:37;;;;;;;44.40;13.55;;;;;;;14.51;39.41;93423.94;5063650;28;20109;-76
2022/03/30 08:34:03;;;;;;;42.83;12.40;;;;;;;14.69;39.63;93413.66;5063894;28;20025;-76
2022/03/30 08:36:29;;;;;;;41.15;14.20;;;;;;;14.90;38.99;93408.75;5062319;28;20075;-77
2022/03/30 08:39:08;;;;;;;;;;;;;;;;;;;;;
2022/03/30 08:41:34;;;;;;;42.53;11.07;;;;;;;15.28;36.96;93409.13;5061312;28;20056;-78
2022/03/30 08:44:02;;;;;;;30.42;13.27;;;;;;;15.43;36.69;93413.66;5063493;28;20031;-78
2022/03/30 08:46:28;;;;;;;39.65;14.00;;;;;;;15.39;36.71;93410.13;5063405;28;20037;-77
2022/03/30 08:48:53;;;;;;;36.47;13.15;;;;;;;15.53;36.78;93398.88;5063722;28;20020;-79
2022/03/30 08:51:20;;;;;;;49.53;14.50;;;;;;;15.71;36.63;93391.91;5063401;28;20051;-78
2022/03/30 08:53:47;;;;;;;42.85;12.23;;;;;;;15.94;36.47;93388.53;5063485;28;20027;-76
2022/03/30 08:56:12;;;;;;;32.47;12.63;;;;;;;16.13;35.77;93383.06;5063183;28;20052;-81
2022/03/30 08:58:39;;;;;;;30.38;12.68;;;;;;;16.29;34.66;93387.56;5063253;28;20092;-80
2022/03/30 09:01:09;;;;;;;52.78;12.88;;;;;;;16.37;34.51;93376.53;5063152;28;20024;-77
2022/03/30 09:03:34;;;;;;;32.90;12.48;;;;;;;16.35;34.78;93378.81;5063134;28;20069;-77
2022/03/30 09:06:00;;;;;;;43.97;11.40;;;;;;;16.36;35.02;93374.22;5063062;28;20315;-76
2022/03/30 09:08:27;;;;;;;43.80;14.45;;;;;;;16.43;34.79;93371.63;5063296;28;20028;-75
2022/03/30 09:10:54;;;;;;;34.92;12.65;;;;;;;16.60;35.32;93368.41;5063355;28;20323;-76
2022/03/30 09:13:21;;;;;;;30.60;10.43;;;;;;;16.77;35.29;93371.72;5062769;28;20119;-77
2022/03/30 09:15:48;;;;;;;23.77;9.73;;;;;;;16.94;34.02;93363.16;5062934;28;20032;-78
2022/03/30 09:18:15;;;;;;;37.30;12.50;;;;;;;17.07;34.14;93368.31;5063097;28;20093;-81
2022/03/30 09:20:46;;;;;;;25.75;10.43;;;;;;;17.21;33.66;93358.47;5062996;28;20021;-79
2022/03/30 09:23:14;;;;;;;26.75;10.63;;;;;;;17.35;33.62;93344.41;5062668;28;20017;-80
2022/03/30 09:25:43;;;;;;;27.83;10.82;;;;;;;17.59;33.52;93345.06;5061641;28;20021;-78
2022/03/30 09:28:10;;;;;;;29.90;8.93;;;;;;;17.73;32.27;93344.41;5062330;28;20017;-77
2022/03/30 09:30:36;;;;;;;34.30;9.75;;;;;;;17.80;32.01;93344.47;5062096;28;20017;-77
2022/03/30 09:33:02;;;;;;;25.67;9.98;;;;;;;17.92;32.10;93343.47;5062737;28;20044;-79
2022/03/30 09:35:41;;;;;;;32.40;10.05;;;;;;;18.08;31.36;93332.44;5062628;28;20017;-78
2022/03/30 09:38:14;;;;;;;26.48;9.52;;;;;;;18.19;30.71;93339.44;5062665;28;20096;-78
2022/03/30 09:40:47;;;;;;;30.15;9.25;;;;;;;18.35;31.04;93344.56;5062570;28;20048;-76
2022/03/30 09:43:17;;;;;;;30.48;9.55;;;;;;;18.42;31.09;93320.34;5062467;28;20315;-81
2022/03/30 09:45:44;;;;;;;32.65;9.90;;;;;;;18.56;30.99;93311.59;5062621;28;20090;-75
2022/03/30 09:48:12;;;;;;;20.65;8.63;;;;;;;18.74;29.24;93302.78;5062556;28;20231;-77
2022/03/30 09:50:46;;;;;;;21.70;6.53;;;;;;;18.87;26.80;93290.56;5062318;28;20036;-74
2022/03/30 09:53:13;;;;;;;25.40;6.97;;;;;;;18.78;27.38;93293.56;5062312;28;20318;-82
2022/03/30 09:56:08;;;;;;;34.13;8.95;;;;;;;18.81;28.78;93292.84;5062292;28;20029;-77
2022/03/30 09:58:38;;;;;;;38.33;9.60;;;;;;;18.91;29.57;93293.25;5062287;28;20056;-79
2022/03/30 10:01:09;;;;;;;33.85;10.48;;;;;;;19.03;28.99;93292.91;5061269;28;20021;-80
2022/03/30 10:03:47;;;;;;;32.20;9.98;;;;;;;18.96;28.60;93282.88;5063240;28;20248;-78
2022/03/30 10:06:15;;;;;;;34.38;10.63;;;;;;;18.81;28.85;93286.69;5062169;28;20219;-78
2022/03/30 10:08:43;;;;;;;21.13;8.02;;;;;;;18.96;27.61;93274.75;5062254;28;20032;-78
2022/03/30 10:11:10;;;;;;;27.13;7.57;;;;;;;19.18;27.59;93261.34;5062155;28;20086;-78
2022/03/30 10:13:37;;;;;;;16.10;6.28;;;;;;;19.14;25.41;93260.56;5062134;28;20088;-79
2022/03/30 10:16:05;;;;;;;21.35;6.93;;;;;;;19.14;25.33;93260.56;5061867;28;20021;-78
2022/03/30 10:18:32;;;;;;;24.10;7.32;;;;;;;19.02;25.29;93254.34;5061952;28;20043;-80
2022/03/30 10:21:22;;;;;;;22.83;8.20;;;;;;;19.04;26.84;93256.66;5062046;28;20029;-76
2022/03/30 10:23:53;;;;;;;31.15;8.80;;;;;;;18.83;27.23;93250.03;5062227;28;20067;-79
2022/03/30 10:26:31;;;;;;;38.92;9.07;;;;;;;18.67;26.26;93249.56;5062030;28;20041;-79
2022/03/30 10:29:09;;;;;;;21.13;8.48;;;;;;;18.27;26.46;93232.38;5061911;28;20208;-82
2022/03/30 10:31:35;;;;;;;19.65;7.15;;;;;;;18.15;26.39;93230.00;5062206;28;20189;-79
2022/03/30 10:34:25;;;;;;;20.35;6.10;;;;;;;18.12;26.37;93225.38;5062068;28;20092;-80
2022/03/30 10:37:09;;;;;;;14.95;4.80;;;;;;;18.18;25.33;93218.47;5061715;28;20033;-77
2022/03/30 10:39:53;;;;;;;23.17;5.30;;;;;;;18.01;25.91;93203.72;5061738;28;20028;-76
2022/03/30 10:42:18;;;;;;;14.75;5.07;;;;;;;18.24;26.56;93212.34;5065597;28;20063;-77
2022/03/30 10:44:47;;;;;;;17.10;5.15;;;;;;;18.27;25.09;93210.03;5065500;28;20024;-76
2022/03/30 10:47:20;;;;;;;18.75;5.50;;;;;;;18.30;25.10;93212.75;5065595;28;20078;-76
2022/03/30 10:49:51;;;;;;;22.23;5.75;;;;;;;18.35;25.28;93217.00;5065541;28;20040;-76
2022/03/30 10:52:39;;;;;;;17.30;5.35;;;;;;;18.48;24.97;93210.16;5065468;28;20040;-76
2022/03/30 10:55:25;;;;;;;15.98;5.32;;;;;;;18.44;24.67;93210.13;5065304;28;20088;-81
2022/03/30 10:57:53;;;;;;;12.40;4.70;;;;;;;18.43;24.80;93207.81;5061368;28;20061;-78
2022/03/30 11:00:34;;;;;;;15.30;4.70;;;;;;;18.54;24.32;93205.16;5065407;28;20105;-84
2022/03/30 11:03:07;;;;;;;24.50;5.53;;;;;;;18.59;24.66;93204.78;5065552;28;20067;-87
2022/03/30 11:05:37;;;;;;;19.23;5.00;;;;;;;18.67;24.07;93211.00;5066631;28;20078;-93
2022/03/30 11:08:26;;;;;;;13.57;5.97;;;;;;;18.78;24.68;93203.69;5065764;28;20025;-84
2022/03/30 11:10:52;;;;;;;45.05;7.50;;;;;;;18.98;23.45;93213.06;5067066;28;20302;-83
2022/03/30 11:13:25;;;;;;;18.27;4.30;;;;;;;18.63;23.03;93216.38;5065430;28;20052;-87
2022/03/30 11:16:00;;;;;;;20.25;4.30;;;;;;;18.45;23.53;93210.91;5067930;28;20036;-94
2022/03/30 11:18:29;;;;;;;16.10;3.80;;;;;;;18.44;23.11;93201.28;5067183;28;20036;-92
2022/03/30 11:21:21;;;;;;;13.23;3.67;;;;;;;18.39;23.92;93212.41;5071062;28;20024;-95
2022/03/30 11:24:11;;;;;;;14.30;4.47;;;;;;;18.25;24.23;93218.50;5063476;28;20036;-91
2022/03/30 11:26:49;;;;;;;12.60;3.78;;;;;;;18.07;24.05;93196.81;5065840;28;20013;-89
2022/03/30 11:29:55;;;;;;;18.98;3.65;;;;;;;17.88;24.12;93197.84;5065248;28;20267;-94
2022/03/30 11:32:30;;;;;;;14.98;3.80;;;;;;;17.91;24.38;93189.03;5065061;28;20013;-82
2022/03/30 11:35:08;;;;;;;20.42;3.75;;;;;;;17.82;24.50;93181.22;5065339;28;20029;-81
2022/03/30 11:37:53;;;;;;;21.92;4.10;;;;;;;17.47;23.98;93187.13;5065381;28;20024;-87